Time;durP1;ratioP1;P1;durP2;ratioP2;P2;SDS_P1;SDS_P2;PMS_P1;PMS_P2;Temp;Humidity;BMP_temperature;BMP_pressure;BME280_temperature;BME280_humidity;BME280_pressure;Samples;Min_cycle;Max_cycle;Signal;HPM_P1;HPM_P2
2022/06/03 16:49:28;;;;;;;;;;;24.00;86.80;;;;;;6185739;23;20491;-91
2022/06/03 16:51:53;;;;;;;;;;;23.90;86.20;;;;;;6164646;23;20024;-91
2022/06/03 16:54:33;;;;;;;;;;;23.90;86.20;;;;;;6183606;23;19971;-91
2022/06/03 16:57:02;;;;;;;;;;;23.80;85.90;;;;;;6185153;23;19981;-91
2022/06/03 16:59:28;;;;;;;;;;;23.80;86.30;;;;;;6185422;23;20049;-91
2022/06/03 17:01:53;;;;;;;;;;;23.80;87.00;;;;;;6185035;23;19945;-91
2022/06/03 17:04:22;;;;;;;;;;;23.90;86.80;;;;;;6185185;23;19932;-89
2022/06/03 17:06:48;;;;;;;;;;;23.90;87.10;;;;;;6185657;23;19935;-89
2022/06/03 17:09:14;;;;;;;;;;;23.90;86.40;;;;;;6185589;23;20018;-89
2022/06/03 17:11:40;;;;;;;;;;;23.90;86.40;;;;;;6185714;23;19933;-89
2022/06/03 17:14:10;;;;;;;;;;;23.90;86.50;;;;;;6185451;23;20402;-89
2022/06/03 17:16:43;;;;;;;;;;;24.00;86.80;;;;;;6185635;23;20006;-89
2022/06/03 17:19:10;;;;;;;;;;;24.10;87.10;;;;;;6185524;23;19987;-89
2022/06/03 17:21:38;;;;;;;;;;;24.10;87.70;;;;;;6185578;23;19938;-89
2022/06/03 17:24:25;;;;;;;;;;;24.00;87.80;;;;;;6185635;23;19934;-89
2022/06/03 17:27:04;;;;;;;;;;;24.00;87.80;;;;;;6185970;23;19946;-89
2022/06/03 17:29:34;;;;;;;;;;;24.00;88.20;;;;;;6185104;23;20463;-89
2022/06/03 17:32:01;;;;;;;;;;;24.00;88.50;;;;;;6185511;23;19931;-89
2022/06/03 17:34:26;;;;;;;;;;;24.00;88.10;;;;;;6185526;23;19948;-89
2022/06/03 17:36:55;;;;;;;;;;;24.00;87.90;;;;;;6185527;23;20411;-89
2022/06/03 17:39:20;;;;;;;;;;;24.00;87.70;;;;;;6159030;23;20323;-89
2022/06/03 17:42:01;;;;;;;;;;;24.00;87.60;;;;;;6185589;23;20022;-89
2022/06/03 17:44:32;;;;;;;;;;;24.00;87.30;;;;;;6185563;23;19972;-89
2022/06/03 17:47:07;;;;;;;;;;;24.00;87.30;;;;;;6185559;23;19953;-89
2022/06/03 17:49:49;;;;;;;;;;;24.00;87.40;;;;;;6158547;23;20343;-89
2022/06/03 17:55:19;;;;;;;;;;;24.00;88.50;;;;;;6185346;23;19940;-89
2022/06/03 17:58:02;;;;;;;;;;;23.90;89.30;;;;;;6185406;23;19955;-89
2022/06/03 18:00:37;;;;;;;;;;;23.90;89.70;;;;;;6185824;23;19951;-89
2022/06/03 18:03:12;;;;;;;;;;;23.80;89.90;;;;;;6185802;23;19938;-89
2022/06/03 18:05:42;;;;;;;;;;;23.80;90.20;;;;;;6185189;23;20030;-89
2022/06/03 18:08:30;;;;;;;;;;;23.70;90.40;;;;;;6185469;23;19933;-89
2022/06/03 18:10:56;;;;;;;;;;;23.70;90.30;;;;;;6185191;23;20307;-89
2022/06/03 18:13:24;;;;;;;;;;;23.70;90.20;;;;;;6185371;23;19940;-89
2022/06/03 18:16:00;;;;;;;;;;;23.80;90.10;;;;;;6187003;23;19946;-89
2022/06/03 18:18:27;;;;;;;;;;;23.80;89.80;;;;;;6187487;23;19962;-89
2022/06/03 18:20:53;;;;;;;;;;;23.80;89.30;;;;;;6187309;23;19946;-89
2022/06/03 18:23:37;;;;;;;;;;;23.70;88.80;;;;;;6187251;23;19973;-89
2022/06/03 18:26:17;;;;;;;;;;;23.70;88.70;;;;;;6187603;23;19946;-89
2022/06/03 18:28:43;;;;;;;;;;;23.70;88.60;;;;;;6187263;23;19982;-89
2022/06/03 18:31:21;;;;;;;;;;;23.70;88.50;;;;;;6187247;23;20357;-89
2022/06/03 18:34:00;;;;;;;;;;;23.60;88.50;;;;;;6187321;23;19937;-89
2022/06/03 18:36:44;;;;;;;;;;;23.60;88.70;;;;;;6187025;23;20359;-89
2022/06/03 18:39:21;;;;;;;;;;;23.60;88.80;;;;;;6186977;23;20059;-89
2022/06/03 18:41:47;;;;;;;;;;;23.60;88.90;;;;;;6187104;23;19941;-89
2022/06/03 18:44:19;;;;;;;;;;;23.60;88.90;;;;;;6187396;23;20047;-89
2022/06/03 18:46:53;;;;;;;;;;;23.50;88.80;;;;;;6186756;23;19943;-89
2022/06/03 18:49:21;;;;;;;;;;;23.50;88.60;;;;;;6186999;23;19940;-89
2022/06/03 18:51:50;;;;;;;;;;;23.50;88.60;;;;;;6187064;23;19938;-89
2022/06/03 18:54:24;;;;;;;;;;;23.50;88.50;;;;;;6186900;23;20066;-89
2022/06/03 18:57:04;;;;;;;;;;;23.50;88.40;;;;;;6186937;23;19987;-89
2022/06/03 18:59:36;;;;;;;;;;;23.40;88.20;;;;;;6186692;23;19961;-89
2022/06/03 19:02:20;;;;;;;;;;;23.40;87.90;;;;;;6186918;23;19932;-89
2022/06/03 19:04:51;;;;;;;;;;;23.40;87.70;;;;;;6186668;23;20239;-89
2022/06/03 19:07:26;;;;;;;;;;;23.40;87.70;;;;;;6186912;23;19976;-89
2022/06/03 19:09:57;;;;;;;;;;;23.40;87.70;;;;;;6160440;23;19992;-89
2022/06/03 19:12:26;;;;;;;;;;;23.30;87.70;;;;;;6160774;23;19937;-89
2022/06/03 19:14:55;;;;;;;;;;;23.30;87.80;;;;;;6186798;23;19943;-89
2022/06/03 19:17:34;;;;;;;;;;;23.40;87.90;;;;;;6186687;23;19976;-89
2022/06/03 19:20:22;;;;;;;;;;;23.30;88.10;;;;;;6186751;23;19940;-89
2022/06/03 19:22:57;;;;;;;;;;;23.30;89.10;;;;;;6186783;23;20000;-89
2022/06/03 19:25:29;;;;;;;;;;;23.30;89.30;;;;;;6186629;23;20007;-89
2022/06/03 19:27:55;;;;;;;;;;;23.30;89.20;;;;;;6186633;23;19939;-89
2022/06/03 19:30:22;;;;;;;;;;;23.30;89.10;;;;;;6186839;23;19993;-89
2022/06/03 19:32:53;;;;;;;;;;;23.30;89.20;;;;;;6186574;23;19944;-89
2022/06/03 19:35:20;;;;;;;;;;;23.20;89.40;;;;;;6186450;23;19949;-89
2022/06/03 19:38:08;;;;;;;;;;;23.20;89.60;;;;;;6186758;23;19942;-89
2022/06/03 19:40:47;;;;;;;;;;;23.20;89.80;;;;;;6186854;23;19940;-89
2022/06/03 19:43:13;;;;;;;;;;;23.10;89.90;;;;;;6186525;23;20417;-89
2022/06/03 19:46:04;;;;;;;;;;;23.20;90.00;;;;;;6186845;23;19948;-89
2022/06/03 19:48:30;;;;;;;;;;;23.20;90.00;;;;;;6186319;23;20047;-89
2022/06/03 19:51:00;;;;;;;;;;;23.10;90.10;;;;;;6186484;23;20379;-89
2022/06/03 19:53:29;;;;;;;;;;;23.10;90.10;;;;;;6186378;23;20182;-89
2022/06/03 19:55:59;;;;;;;;;;;23.10;90.30;;;;;;6160308;23;20245;-89
2022/06/03 19:58:28;;;;;;;;;;;23.10;90.50;;;;;;6186195;23;20007;-89
2022/06/03 20:00:56;;;;;;;;;;;22.90;90.60;;;;;;6186364;23;19933;-89
2022/06/03 20:03:22;;;;;;;;;;;22.80;90.90;;;;;;6186306;23;19936;-89
2022/06/03 20:06:24;;;;;;;;;;;22.80;91.00;;;;;;6186268;23;19941;-89
2022/06/03 20:08:52;;;;;;;;;;;22.80;91.20;;;;;;6186569;23;19946;-89
2022/06/03 20:14:09;;;;;;;;;;;22.80;91.80;;;;;;6186259;23;19965;-89
2022/06/03 20:16:49;;;;;;;;;;;22.50;92.50;;;;;;6186091;23;19936;-89
2022/06/03 20:19:17;;;;;;;;;;;22.50;92.50;;;;;;6186177;23;19961;-89
2022/06/03 20:21:45;;;;;;;;;;;22.50;92.50;;;;;;6186194;23;20346;-90
2022/06/03 20:24:29;;;;;;;;;;;22.50;92.60;;;;;;6186091;23;19949;-89
2022/06/03 20:27:00;;;;;;;;;;;22.50;92.50;;;;;;6186109;23;19939;-89
2022/06/03 20:29:36;;;;;;;;;;;22.50;92.20;;;;;;6186138;23;19937;-89
2022/06/03 20:32:09;;;;;;;;;;;22.40;92.00;;;;;;6186048;23;19946;-89
2022/06/03 20:34:52;;;;;;;;;;;22.40;92.10;;;;;;6185860;23;19963;-89
2022/06/03 20:37:20;;;;;;;;;;;22.40;92.20;;;;;;6185790;23;19988;-89
2022/06/03 20:39:47;;;;;;;;;;;22.40;92.40;;;;;;6185936;23;19959;-89
2022/06/03 20:42:35;;;;;;;;;;;22.40;92.40;;;;;;6185979;23;19955;-89
2022/06/03 20:45:13;;;;;;;;;;;22.30;92.10;;;;;;6186229;23;20003;-89
2022/06/03 20:47:41;;;;;;;;;;;22.30;92.00;;;;;;6185778;23;20383;-89
2022/06/03 20:50:30;;;;;;;;;;;22.30;92.10;;;;;;6185814;23;20354;-89
2022/06/03 20:53:00;;;;;;;;;;;22.30;92.10;;;;;;6166450;23;20305;-89
2022/06/03 20:55:31;;;;;;;;;;;22.30;92.20;;;;;;6185755;23;20377;-89
2022/06/03 20:57:59;;;;;;;;;;;22.30;92.20;;;;;;6159457;23;19970;-89
2022/06/03 21:00:25;;;;;;;;;;;22.30;92.20;;;;;;6185824;23;20016;-89
2022/06/03 21:02:51;;;;;;;;;;;22.40;92.20;;;;;;6185840;23;20308;-89
2022/06/03 21:12:48;;;;;;;;;;;22.40;92.00;;;;;;6185720;23;19963;-89
2022/06/03 21:13:40;;;;;;;;;;;22.40;92.00;;;;;;6185772;23;20382;-89
2022/06/03 21:16:06;;;;;;;;;;;22.40;92.00;;;;;;6185733;23;19941;-89
2022/06/03 21:18:31;;;;;;;;;;;22.30;91.90;;;;;;6185595;23;19964;-89
2022/06/03 21:21:06;;;;;;;;;;;22.30;91.90;;;;;;6185678;23;19941;-89
2022/06/03 21:23:31;;;;;;;;;;;22.30;92.00;;;;;;6185670;23;19939;-89
2022/06/03 21:25:57;;;;;;;;;;;22.30;92.00;;;;;;6185660;23;19935;-89
2022/06/03 21:28:22;;;;;;;;;;;22.30;92.00;;;;;;6185899;23;19945;-89
2022/06/03 21:30:54;;;;;;;;;;;22.20;92.00;;;;;;6185463;23;20333;-89
2022/06/03 21:33:22;;;;;;;;;;;22.20;92.00;;;;;;6185559;23;19971;-89
2022/06/03 21:36:06;;;;;;;;;;;22.10;92.00;;;;;;6185416;23;19961;-89
2022/06/03 21:38:45;;;;;;;;;;;22.10;92.00;;;;;;6185453;23;19955;-89
2022/06/03 21:41:13;;;;;;;;;;;22.10;92.00;;;;;;6185492;23;19938;-89
2022/06/03 21:43:41;;;;;;;;;;;22.10;92.30;;;;;;6185425;23;20070;-89
2022/06/03 21:46:07;;;;;;;;;;;22.10;92.20;;;;;;6185528;23;19942;-89
2022/06/03 21:48:39;;;;;;;;;;;22.10;92.20;;;;;;6185272;23;19971;-89
2022/06/03 21:51:12;;;;;;;;;;;22.00;92.10;;;;;;6187017;23;19944;-89
2022/06/03 21:53:44;;;;;;;;;;;22.00;92.00;;;;;;6187712;23;19943;-90
2022/06/03 21:56:30;;;;;;;;;;;22.00;92.00;;;;;;6187426;23;19936;-89
2022/06/03 21:58:59;;;;;;;;;;;21.90;91.90;;;;;;6187395;23;20069;-89
2022/06/03 22:01:25;;;;;;;;;;;21.90;91.90;;;;;;6187383;23;19948;-89
2022/06/03 22:03:52;;;;;;;;;;;21.80;91.80;;;;;;6187305;23;19931;-89
2022/06/03 22:06:17;;;;;;;;;;;21.70;91.90;;;;;;6187400;23;19998;-89
2022/06/03 22:08:44;;;;;;;;;;;21.50;91.70;;;;;;6187322;23;19939;-89
2022/06/03 22:13:54;;;;;;;;;;;21.30;92.20;;;;;;6187350;23;20279;-89
2022/06/03 22:16:19;;;;;;;;;;;21.30;92.20;;;;;;6187312;23;19968;-89
2022/06/03 22:18:45;;;;;;;;;;;21.30;92.30;;;;;;6187221;23;20366;-89
2022/06/03 22:21:11;;;;;;;;;;;21.30;92.50;;;;;;6187280;23;19944;-89
2022/06/03 22:23:38;;;;;;;;;;;21.30;92.50;;;;;;6187335;23;20329;-89
2022/06/03 22:26:11;;;;;;;;;;;21.30;92.50;;;;;;6187251;23;19988;-89
2022/06/03 22:28:51;;;;;;;;;;;21.30;92.60;;;;;;6187212;23;19939;-89
2022/06/03 22:31:32;;;;;;;;;;;21.30;92.50;;;;;;6187186;23;19937;-89
2022/06/03 22:34:23;;;;;;;;;;;21.30;92.40;;;;;;6187032;23;20003;-89
2022/06/03 22:36:55;;;;;;;;;;;21.10;92.20;;;;;;6130490;23;20359;-89
2022/06/03 22:39:20;;;;;;;;;;;20.80;91.80;;;;;;6186969;23;20432;-89
2022/06/03 22:41:49;;;;;;;;;;;20.80;92.20;;;;;;6187041;23;19934;-89
2022/06/03 22:44:15;;;;;;;;;;;20.80;92.70;;;;;;6187041;23;19936;-89
2022/06/03 22:46:46;;;;;;;;;;;20.80;93.30;;;;;;6160425;23;19978;-89
2022/06/03 22:49:14;;;;;;;;;;;20.80;93.40;;;;;;6186992;23;20058;-89
2022/06/03 22:51:39;;;;;;;;;;;20.80;93.40;;;;;;6186954;23;19944;-89
2022/06/03 22:54:05;;;;;;;;;;;20.80;93.10;;;;;;6186789;23;20023;-89
2022/06/03 22:56:31;;;;;;;;;;;20.70;92.90;;;;;;6186962;23;19981;-89
2022/06/03 22:58:59;;;;;;;;;;;20.60;92.90;;;;;;6186830;23;19957;-88
2022/06/03 23:01:25;;;;;;;;;;;20.50;93.00;;;;;;6186691;23;19937;-89
2022/06/03 23:03:51;;;;;;;;;;;20.50;93.40;;;;;;6186874;23;19933;-89
2022/06/03 23:06:17;;;;;;;;;;;20.50;93.50;;;;;;6186811;23;19933;-89
2022/06/03 23:08:44;;;;;;;;;;;20.60;93.70;;;;;;6186796;23;19932;-89
2022/06/03 23:11:09;;;;;;;;;;;20.70;93.90;;;;;;6186754;23;19940;-89
2022/06/03 23:13:36;;;;;;;;;;;20.60;93.80;;;;;;6186437;23;20407;-89
2022/06/03 23:16:02;;;;;;;;;;;20.60;93.80;;;;;;6160056;23;19949;-89
2022/06/03 23:18:29;;;;;;;;;;;20.60;93.70;;;;;;6186635;23;19956;-89
2022/06/03 23:20:56;;;;;;;;;;;20.50;93.40;;;;;;6186764;23;20012;-89
2022/06/03 23:23:23;;;;;;;;;;;20.40;93.20;;;;;;6186649;23;19965;-89
2022/06/03 23:25:50;;;;;;;;;;;20.30;93.00;;;;;;6186545;23;19962;-89
2022/06/03 23:28:15;;;;;;;;;;;20.20;93.50;;;;;;6186456;23;19944;-89
2022/06/03 23:30:41;;;;;;;;;;;20.20;93.90;;;;;;6186650;23;19962;-89
2022/06/03 23:33:07;;;;;;;;;;;20.00;93.90;;;;;;6160122;23;20379;-88
2022/06/03 23:35:32;;;;;;;;;;;20.00;94.30;;;;;;6160156;23;19955;-89
2022/06/03 23:37:58;;;;;;;;;;;19.90;94.60;;;;;;6186306;23;20427;-89
2022/06/03 23:40:24;;;;;;;;;;;19.90;94.60;;;;;;6186500;23;19939;-89
2022/06/03 23:45:33;;;;;;;;;;;19.90;94.80;;;;;;6186434;23;19945;-89
2022/06/03 23:48:00;;;;;;;;;;;19.90;94.80;;;;;;6186185;23;19971;-89
2022/06/03 23:50:26;;;;;;;;;;;19.90;94.70;;;;;;6186275;23;20374;-89
2022/06/03 23:52:56;;;;;;;;;;;19.90;94.60;;;;;;6186322;23;19938;-89
2022/06/03 23:55:21;;;;;;;;;;;20.00;94.60;;;;;;6186221;23;19938;-89
2022/06/03 23:57:47;;;;;;;;;;;20.00;94.60;;;;;;6186298;23;20026;-89
